Time;durP1;ratioP1;P1;durP2;ratioP2;P2;SDS_P1;SDS_P2;PMS_P1;PMS_P2;Temp;Humidity;BMP_temperature;BMP_pressure;BME280_temperature;BME280_humidity;BME280_pressure;Samples;Min_cycle;Max_cycle;Signal;HPM_P1;HPM_P2
2021/03/12 00:00:17;;;;;;;11.95;3.85;;;;;;;9.09;67.80;98242.38;4996719;28;20061;-86
2021/03/12 00:02:45;;;;;;;7.32;3.05;;;;;;;9.09;68.23;98240.56;4994941;28;20050;-86
2021/03/12 00:05:12;;;;;;;11.00;4.03;;;;;;;9.08;68.20;98238.91;4994921;28;20054;-87
2021/03/12 00:07:39;;;;;;;19.90;4.03;;;;;;;9.09;67.76;98256.31;4996627;28;20042;-86
2021/03/12 00:10:13;;;;;;;18.00;4.15;;;;;;;9.06;67.43;98261.81;4995250;28;20061;-86
2021/03/12 00:12:40;;;;;;;9.38;3.67;;;;;;;9.08;68.26;98261.72;4994947;28;20057;-87
2021/03/12 00:15:11;;;;;;;12.20;3.08;;;;;;;9.05;67.85;98264.56;4995840;28;20083;-86
2021/03/12 00:17:37;;;;;;;5.85;2.70;;;;;;;9.03;67.65;98262.03;4996083;28;20043;-86
2021/03/12 00:20:19;;;;;;;10.98;2.55;;;;;;;8.97;67.41;98280.88;4996439;28;20050;-86
2021/03/12 00:22:46;;;;;;;6.53;2.30;;;;;;;8.92;67.70;98278.59;4994638;28;20058;-86
2021/03/12 00:25:16;;;;;;;6.75;2.63;;;;;;;8.87;67.53;98283.34;4994852;28;20054;-86
2021/03/12 00:27:42;;;;;;;6.90;2.40;;;;;;;8.80;67.68;98277.72;4994986;28;20047;-86
2021/03/12 00:30:10;;;;;;;7.47;2.20;;;;;;;8.71;67.56;98294.94;4995103;28;20051;-86
2021/03/12 00:32:37;;;;;;;9.68;2.70;;;;;;;8.65;67.70;98297.19;4994823;28;20050;-87
2021/03/12 00:35:05;;;;;;;9.45;2.60;;;;;;;8.56;68.09;98309.19;4994234;28;20547;-86
2021/03/12 00:37:32;;;;;;;6.60;2.15;;;;;;;8.49;68.22;98295.66;4996197;28;20054;-86
2021/03/12 00:39:58;;;;;;;8.60;2.30;;;;;;;8.42;68.28;98297.88;4995454;28;20053;-86
2021/03/12 00:42:24;;;;;;;5.60;1.85;;;;;;;8.34;68.52;98306.28;4994676;28;20054;-87
2021/03/12 00:44:50;;;;;;;7.38;2.22;;;;;;;8.28;68.36;98314.59;4995600;28;20449;-86
2021/03/12 00:47:17;;;;;;;6.82;2.10;;;;;;;8.24;68.48;98318.38;4995595;28;20529;-86
2021/03/12 00:49:43;;;;;;;8.25;2.25;;;;;;;8.18;68.58;98321.41;4995540;28;20050;-87
2021/03/12 00:52:10;;;;;;;5.72;2.13;;;;;;;8.15;68.99;98332.13;4994373;28;20079;-86
2021/03/12 00:54:36;;;;;;;6.20;1.70;;;;;;;8.12;69.19;98333.19;4993988;28;20133;-87
2021/03/12 00:57:02;;;;;;;10.45;2.70;;;;;;;8.07;69.10;98323.00;4995732;28;20046;-86
2021/03/12 00:59:28;;;;;;;6.18;2.45;;;;;;;8.04;69.26;98327.66;4995779;28;20054;-86
2021/03/12 01:01:54;;;;;;;9.57;2.47;;;;;;;8.02;69.28;98332.13;4994407;28;20050;-86
2021/03/12 01:04:21;;;;;;;8.75;2.85;;;;;;;7.98;69.66;98336.75;4993790;28;20501;-86
2021/03/12 01:06:47;;;;;;;13.68;2.90;;;;;;;7.95;69.71;98345.69;4995542;28;20416;-86
2021/03/12 01:09:13;;;;;;;11.90;2.70;;;;;;;7.93;69.82;98344.94;4994406;28;20057;-86
2021/03/12 01:11:39;;;;;;;11.77;3.30;;;;;;;7.91;69.94;98352.06;4994604;28;20531;-86
2021/03/12 01:14:05;;;;;;;9.50;3.20;;;;;;;7.89;69.86;98361.81;4994580;28;20054;-86
2021/03/12 01:16:31;;;;;;;10.45;3.10;;;;;;;7.88;70.35;98362.75;4993799;28;20057;-86
2021/03/12 01:18:58;;;;;;;12.80;3.13;;;;;;;7.88;70.34;98365.38;4994191;28;20051;-86
2021/03/12 01:21:24;;;;;;;9.15;3.78;;;;;;;7.89;70.47;98374.09;4994181;28;20054;-86
2021/03/12 01:23:50;;;;;;;11.48;3.60;;;;;;;7.88;70.46;98365.38;4994230;28;20500;-85
2021/03/12 01:26:17;;;;;;;17.20;4.18;;;;;;;7.89;70.62;98361.81;4994340;28;20054;-86
2021/03/12 01:28:43;;;;;;;13.02;4.70;;;;;;;7.88;70.34;98372.38;4995935;28;20053;-86
2021/03/12 01:31:09;;;;;;;13.73;4.20;;;;;;;7.89;70.58;98371.47;4995181;28;20054;-86
2021/03/12 01:33:35;;;;;;;13.27;4.57;;;;;;;7.90;70.88;98381.84;4993431;28;20054;-86
2021/03/12 01:36:02;;;;;;;9.98;4.32;;;;;;;7.93;71.01;98381.59;4993734;28;20077;-85
2021/03/12 01:38:28;;;;;;;15.88;4.95;;;;;;;7.93;71.17;98372.94;4993546;28;20497;-86
2021/03/12 01:40:54;;;;;;;14.80;5.68;;;;;;;7.97;71.13;98384.03;4993804;28;20050;-86
2021/03/12 01:43:21;;;;;;;12.25;4.53;;;;;;;7.99;71.13;98397.88;4993003;28;20050;-86
2021/03/12 01:45:49;;;;;;;12.30;5.20;;;;;;;8.00;71.01;98387.28;4993555;28;20052;-86
2021/03/12 01:48:18;;;;;;;16.48;5.18;;;;;;;8.02;71.01;98372.28;4993642;28;20547;-86
2021/03/12 01:50:49;;;;;;;18.05;5.65;;;;;;;8.04;71.12;98391.34;4992824;28;20057;-86
2021/03/12 01:53:16;;;;;;;15.90;5.45;;;;;;;8.05;70.86;98392.22;4994458;28;20050;-86
2021/03/12 01:55:43;;;;;;;16.58;5.15;;;;;;;8.08;71.08;98402.50;4993386;28;20046;-86
2021/03/12 01:58:10;;;;;;;23.08;5.90;;;;;;;8.07;71.22;98396.41;4993427;28;20057;-87
2021/03/12 02:00:36;;;;;;;16.73;5.05;;;;;;;8.09;71.16;98393.69;4993395;28;20061;-88
2021/03/12 02:03:06;;;;;;;13.20;4.75;;;;;;;8.08;71.11;98397.25;4992637;28;20073;-86
2021/03/12 02:05:34;;;;;;;14.75;5.18;;;;;;;8.07;70.95;98399.03;4993164;28;20460;-86
2021/03/12 02:08:00;;;;;;;22.70;6.20;;;;;;;8.02;70.61;98418.63;4993408;28;20129;-86
2021/03/12 02:10:28;;;;;;;17.60;5.22;;;;;;;8.00;71.11;98405.59;4993247;28;20061;-86
2021/03/12 02:13:29;;;;;;;14.38;5.30;;;;;;;7.97;70.91;98405.84;4991441;28;20088;-86
2021/03/12 02:16:04;;;;;;;18.88;4.88;;;;;;;7.96;71.10;98409.38;4993856;28;20054;-86
2021/03/12 02:18:52;;;;;;;15.38;4.60;;;;;;;7.95;71.50;98418.19;4992966;28;20070;-86
2021/03/12 02:21:37;;;;;;;16.00;5.38;;;;;;;7.91;70.75;98416.72;4992780;28;20105;-86
2021/03/12 02:24:12;;;;;;;12.48;4.82;;;;;;;7.91;70.72;98421.97;4992639;28;20082;-86
2021/03/12 02:26:54;;;;;;;12.88;5.20;;;;;;;7.87;71.09;98421.34;4993247;28;20046;-87
2021/03/12 02:29:23;;;;;;;18.05;4.88;;;;;;;7.90;71.37;98429.00;4994349;28;20416;-87
2021/03/12 02:31:52;;;;;;;17.45;5.35;;;;;;;7.91;71.42;98440.31;4992573;28;20412;-87
2021/03/12 02:34:22;;;;;;;16.88;4.45;;;;;;;7.90;71.54;98436.88;4993468;28;20500;-87
2021/03/12 02:36:53;;;;;;;10.52;4.85;;;;;;;7.94;71.68;98429.63;4992942;28;20053;-86
2021/03/12 02:39:23;;;;;;;15.02;5.07;;;;;;;7.94;71.64;98434.88;4993478;28;20432;-86
2021/03/12 02:41:51;;;;;;;10.55;4.22;;;;;;;7.95;71.32;98444.41;4992727;28;20054;-86
2021/03/12 02:44:18;;;;;;;11.93;4.90;;;;;;;7.97;71.49;98441.69;4993037;28;20057;-86
2021/03/12 02:46:46;;;;;;;14.80;5.28;;;;;;;7.97;71.26;98454.78;4992817;28;20049;-86
2021/03/12 02:49:14;;;;;;;17.33;6.70;;;;;;;7.97;71.50;98453.00;4994465;28;20133;-86
2021/03/12 02:51:42;;;;;;;13.77;4.80;;;;;;;7.98;71.36;98454.69;4992409;28;20050;-86
2021/03/12 02:54:11;;;;;;;12.52;4.88;;;;;;;7.98;71.32;98445.97;4993798;28;20085;-86
2021/03/12 02:56:38;;;;;;;13.20;4.53;;;;;;;7.99;71.43;98461.59;4993957;28;20050;-86
2021/03/12 02:59:05;;;;;;;11.90;5.18;;;;;;;7.98;71.29;98456.44;4993176;28;20054;-86
2021/03/12 03:01:33;;;;;;;15.20;5.03;;;;;;;7.98;71.21;98453.81;4992938;28;20710;-86
2021/03/12 03:04:01;;;;;;;10.15;4.63;;;;;;;7.98;71.28;98462.53;4980138;28;20058;-87
2021/03/12 03:06:27;;;;;;;15.85;4.50;;;;;;;7.97;71.52;98452.16;4996560;28;20057;-86
2021/03/12 03:08:54;;;;;;;9.88;4.53;;;;;;;7.98;71.29;98464.31;4996598;28;20058;-86
2021/03/12 03:11:21;;;;;;;12.75;5.30;;;;;;;7.96;71.15;98474.88;4997657;28;20409;-86
2021/03/12 03:13:56;;;;;;;12.88;3.90;;;;;;;7.94;70.96;98472.41;4996008;28;20065;-86
2021/03/12 03:16:30;;;;;;;9.02;3.80;;;;;;;7.91;70.71;98490.09;4997667;28;20058;-86
2021/03/12 03:18:58;;;;;;;9.07;3.30;;;;;;;7.89;70.92;98498.03;4996438;28;20054;-86
2021/03/12 03:21:25;;;;;;;8.82;3.75;;;;;;;7.86;71.25;98495.66;4996406;28;20057;-86
2021/03/12 03:23:52;;;;;;;8.93;3.65;;;;;;;7.85;71.27;98498.38;5020464;23;20046;-85
2021/03/12 03:26:18;;;;;;;12.90;3.47;;;;;;;7.82;71.54;98495.00;4997253;28;20050;-86
2021/03/12 03:28:44;;;;;;;6.65;3.50;;;;;;;7.80;71.58;98496.03;4997885;28;20489;-85
2021/03/12 03:31:10;;;;;;;10.00;3.60;;;;;;;7.80;71.84;98514.38;4996340;28;20520;-85
2021/03/12 03:33:37;;;;;;;14.20;4.70;;;;;;;7.79;71.94;98512.69;4996120;28;20047;-83
2021/03/12 03:36:04;;;;;;;13.90;4.30;;;;;;;7.78;71.65;98509.22;4997668;28;20141;-85
2021/03/12 03:38:30;;;;;;;12.95;4.65;;;;;;;7.78;71.84;98506.63;4997456;28;20424;-85
2021/03/12 03:40:57;;;;;;;13.13;4.43;;;;;;;7.78;72.06;98517.09;4996666;28;20497;-84
2021/03/12 03:43:30;;;;;;;9.25;4.70;;;;;;;7.76;71.76;98524.22;4994653;28;20062;-85
2021/03/12 03:46:01;;;;;;;10.20;4.25;;;;;;;7.75;71.60;98521.69;4996712;28;20050;-85
2021/03/12 03:48:29;;;;;;;13.65;4.60;;;;;;;7.76;71.82;98518.13;4996027;28;20050;-85
2021/03/12 03:50:56;;;;;;;9.48;3.92;;;;;;;7.76;71.67;98526.00;4995873;28;20050;-85
2021/03/12 03:53:22;;;;;;;14.45;4.13;;;;;;;7.75;71.84;98532.19;4995738;28;20065;-84
2021/03/12 03:55:50;;;;;;;8.45;4.03;;;;;;;7.74;71.44;98533.94;4992727;28;20050;-85
2021/03/12 03:58:17;;;;;;;7.30;3.42;;;;;;;7.74;71.24;98539.19;4996859;28;20117;-85
2021/03/12 04:00:44;;;;;;;10.68;4.03;;;;;;;7.74;71.38;98546.22;4996422;28;20050;-85
2021/03/12 04:03:10;;;;;;;13.52;3.90;;;;;;;7.74;71.25;98552.28;4995374;28;20484;-86
2021/03/12 04:05:37;;;;;;;13.43;3.92;;;;;;;7.75;71.23;98553.13;4995019;28;20138;-85
2021/03/12 04:08:05;;;;;;;9.18;3.67;;;;;;;7.73;71.43;98555.84;4995928;28;20047;-84
2021/03/12 04:10:31;;;;;;;11.27;3.58;;;;;;;7.74;71.23;98564.56;4995171;28;20050;-85
2021/03/12 04:12:58;;;;;;;8.07;3.45;;;;;;;7.72;71.25;98569.91;4995896;28;20057;-85
2021/03/12 04:15:25;;;;;;;12.23;3.90;;;;;;;7.72;71.02;98575.13;4994437;28;20050;-85
2021/03/12 04:17:53;;;;;;;9.75;3.40;;;;;;;7.71;71.19;98568.22;4996359;28;20058;-84
2021/03/12 04:20:20;;;;;;;9.13;3.30;;;;;;;7.73;71.40;98581.22;4995198;28;20436;-86
2021/03/12 04:22:47;;;;;;;10.25;3.70;;;;;;;7.73;71.42;98581.22;4996071;28;20046;-85
2021/03/12 04:25:13;;;;;;;9.82;3.25;;;;;;;7.74;71.24;98588.13;4995365;28;20385;-84
2021/03/12 04:27:39;;;;;;;13.77;3.20;;;;;;;7.75;71.32;98587.19;4996306;28;20054;-85
2021/03/12 04:30:07;;;;;;;11.45;3.08;;;;;;;7.75;70.77;98595.03;4995222;28;20058;-85
2021/03/12 04:32:36;;;;;;;10.18;3.58;;;;;;;7.75;70.41;98595.03;4996160;28;20081;-85
2021/03/12 04:35:04;;;;;;;8.73;2.85;;;;;;;7.74;70.30;98604.69;4995482;28;20056;-86
2021/03/12 04:37:31;;;;;;;10.35;3.05;;;;;;;7.74;70.72;98606.47;4996054;28;20485;-86
2021/03/12 04:39:58;;;;;;;9.70;2.33;;;;;;;7.73;70.55;98613.47;4996078;28;20046;-86
2021/03/12 04:42:25;;;;;;;11.10;3.22;;;;;;;7.72;70.48;98610.94;4994791;28;20057;-85
2021/03/12 04:45:05;;;;;;;10.07;3.10;;;;;;;7.71;69.84;98619.75;4995265;28;20537;-86
2021/03/12 04:47:31;;;;;;;13.90;3.58;;;;;;;7.71;70.18;98622.38;4995837;28;20042;-86
2021/03/12 04:49:59;;;;;;;10.70;3.38;;;;;;;7.69;70.22;98623.31;4994532;28;20050;-85
2021/03/12 04:52:25;;;;;;;11.80;3.90;;;;;;;7.68;70.38;98632.13;4994316;28;20489;-85
2021/03/12 04:54:51;;;;;;;13.13;3.47;;;;;;;7.67;70.48;98635.66;4994299;28;20504;-86
2021/03/12 04:57:19;;;;;;;11.63;4.10;;;;;;;7.67;70.39;98633.03;4995781;28;20112;-86
2021/03/12 04:59:46;;;;;;;12.63;3.83;;;;;;;7.64;70.51;98641.13;4994385;28;20054;-86
2021/03/12 05:02:12;;;;;;;13.60;3.75;;;;;;;7.65;70.46;98639.31;4994824;28;20493;-86
2021/03/12 05:04:40;;;;;;;12.15;4.35;;;;;;;7.65;70.63;98639.31;4993667;28;20086;-86
2021/03/12 05:07:08;;;;;;;11.43;3.42;;;;;;;7.63;70.35;98647.25;4994095;28;20046;-86
2021/03/12 05:09:34;;;;;;;15.77;4.57;;;;;;;7.61;70.02;98650.91;4994100;28;20053;-86
2021/03/12 05:12:00;;;;;;;12.95;4.50;;;;;;;7.60;69.83;98641.38;4994363;28;20058;-86
2021/03/12 05:14:27;;;;;;;13.48;4.22;;;;;;;7.59;70.23;98639.72;4994876;28;20096;-85
2021/03/12 05:16:53;;;;;;;14.65;5.28;;;;;;;7.56;69.78;98651.22;4994168;28;20061;-85
2021/03/12 05:19:19;;;;;;;13.88;4.22;;;;;;;7.52;70.01;98655.78;4994286;28;20141;-83
2021/03/12 05:21:45;;;;;;;14.45;4.78;;;;;;;7.50;70.16;98654.22;4994399;28;20061;-83
2021/03/12 05:24:11;;;;;;;18.83;5.28;;;;;;;7.48;70.27;98661.34;4993308;28;20042;-83
2021/03/12 05:26:38;;;;;;;17.95;5.85;;;;;;;7.46;70.04;98647.47;4995147;28;20504;-82
2021/03/12 05:29:04;;;;;;;16.15;4.32;;;;;;;7.45;70.48;98653.66;4993751;28;20057;-82
2021/03/12 05:31:30;;;;;;;15.63;4.72;;;;;;;7.41;70.18;98653.84;4994795;28;20054;-83
2021/03/12 05:33:57;;;;;;;21.50;5.28;;;;;;;7.41;70.34;98666.94;4993300;28;20053;-83
2021/03/12 05:36:23;;;;;;;13.63;4.95;;;;;;;7.41;70.53;98669.53;4993914;28;20413;-83
2021/03/12 05:38:50;;;;;;;16.75;5.25;;;;;;;7.41;70.33;98674.78;4994841;28;20101;-84
2021/03/12 05:41:18;;;;;;;16.02;5.40;;;;;;;7.40;69.84;98670.50;4994978;28;20378;-84
2021/03/12 05:43:45;;;;;;;17.65;4.63;;;;;;;7.42;70.55;98684.34;4993952;28;20505;-83
2021/03/12 05:46:11;;;;;;;17.08;4.80;;;;;;;7.42;70.63;98673.88;4994697;28;20058;-83
2021/03/12 05:48:38;;;;;;;17.15;4.68;;;;;;;7.43;70.65;98686.03;4993334;28;20042;-83
2021/03/12 05:51:04;;;;;;;13.50;5.07;;;;;;;7.43;70.21;98682.56;4993493;28;20073;-83
2021/03/12 05:53:31;;;;;;;12.18;4.50;;;;;;;7.43;70.55;98683.41;4992939;28;20050;-84
2021/03/12 05:55:57;;;;;;;15.23;4.88;;;;;;;7.41;70.10;98692.28;4993201;28;20054;-83
2021/03/12 05:58:24;;;;;;;17.77;5.13;;;;;;;7.43;70.13;98690.41;4994355;28;20050;-83
2021/03/12 06:00:52;;;;;;;16.00;5.55;;;;;;;7.40;70.16;98694.06;4993500;28;20066;-83
2021/03/12 06:03:18;;;;;;;20.80;5.18;;;;;;;7.40;69.77;98701.09;4992986;28;20053;-84
2021/03/12 06:05:47;;;;;;;19.30;6.20;;;;;;;7.38;69.72;98708.19;4993145;28;20124;-83
2021/03/12 06:08:14;;;;;;;13.10;6.35;;;;;;;7.37;69.88;98715.19;4993483;28;20390;-83
2021/03/12 06:10:40;;;;;;;20.20;5.63;;;;;;;7.34;69.80;98710.16;4993306;28;20054;-83
2021/03/12 06:13:07;;;;;;;20.92;5.63;;;;;;;7.33;69.78;98705.81;4993858;28;20060;-84
2021/03/12 06:15:38;;;;;;;17.05;5.75;;;;;;;7.28;68.23;98713.97;4993903;28;20065;-84
2021/03/12 06:18:24;;;;;;;14.98;5.57;;;;;;;7.25;67.65;98716.75;4994190;28;20042;-84
2021/03/12 06:20:54;;;;;;;12.63;5.10;;;;;;;7.27;68.74;98716.69;4994245;28;20149;-83
2021/03/12 06:23:33;;;;;;;13.18;5.85;;;;;;;7.25;68.43;98734.25;4992491;28;20065;-83
2021/03/12 06:26:00;;;;;;;17.55;5.40;;;;;;;7.25;68.70;98732.47;4994586;28;20054;-83
2021/03/12 06:28:26;;;;;;;16.75;5.50;;;;;;;7.23;69.29;98717.78;4993833;28;20046;-83
2021/03/12 06:30:52;;;;;;;15.90;4.90;;;;;;;7.22;69.00;98724.78;4994195;28;20057;-83
2021/03/12 06:33:30;;;;;;;13.90;4.75;;;;;;;7.18;68.13;98725.94;4992952;28;20062;-83
2021/03/12 06:35:59;;;;;;;11.65;5.10;;;;;;;7.19;69.05;98730.22;4993038;28;20050;-84
2021/03/12 06:38:25;;;;;;;16.02;4.95;;;;;;;7.17;69.48;98727.69;4999819;28;20038;-84
2021/03/12 06:40:52;;;;;;;12.73;4.93;;;;;;;7.15;69.07;98729.56;5000604;28;20053;-83
2021/03/12 06:43:20;;;;;;;16.02;4.93;;;;;;;7.12;68.72;98731.53;5000355;28;20501;-84
2021/03/12 06:45:49;;;;;;;12.02;4.95;;;;;;;7.10;68.52;98728.16;5004762;28;20050;-85
2021/03/12 06:48:21;;;;;;;11.45;5.10;;;;;;;7.09;69.32;98732.56;5006471;28;20117;-85
2021/03/12 06:50:50;;;;;;;13.52;4.53;;;;;;;7.09;69.27;98723.84;5007060;28;20081;-85
2021/03/12 06:53:17;;;;;;;18.58;5.40;;;;;;;7.10;69.73;98726.38;5008678;28;20061;-84
2021/03/12 06:55:44;;;;;;;16.98;4.78;;;;;;;7.13;69.80;98735.81;5007915;28;20485;-84
2021/03/12 06:58:11;;;;;;;15.32;5.45;;;;;;;7.15;69.41;98729.56;5006965;28;20043;-84
2021/03/12 07:00:37;;;;;;;17.25;4.63;;;;;;;7.16;69.42;98728.66;5008250;28;20054;-85
2021/03/12 07:03:19;;;;;;;14.70;4.53;;;;;;;7.16;68.03;98730.41;5007774;28;20050;-85
2021/03/12 07:06:02;;;;;;;14.53;3.50;;;;;;;7.19;67.70;98734.63;5007800;28;20420;-85
2021/03/12 07:08:37;;;;;;;14.13;4.55;;;;;;;7.22;68.07;98731.81;5008457;28;20053;-85
2021/03/12 07:11:33;;;;;;;14.50;4.13;;;;;;;7.21;67.66;98727.53;5009412;28;20046;-84
2021/03/12 07:13:59;;;;;;;15.25;4.38;;;;;;;7.26;69.01;98726.28;4998253;28;20065;-85
2021/03/12 07:16:28;;;;;;;16.45;4.50;;;;;;;7.28;69.31;98727.06;5007756;28;20420;-85
2021/03/12 07:18:55;;;;;;;13.50;3.95;;;;;;;7.28;69.25;98731.44;5008502;28;20061;-85
2021/03/12 07:21:25;;;;;;;13.48;3.67;;;;;;;7.29;69.01;98730.53;5007292;28;20054;-85
2021/03/12 07:23:56;;;;;;;14.35;3.70;;;;;;;7.30;69.12;98735.66;5004565;28;20057;-84
2021/03/12 07:26:23;;;;;;;14.15;4.47;;;;;;;7.35;69.50;98732.75;5006980;28;20060;-85
2021/03/12 07:28:56;;;;;;;12.82;4.43;;;;;;;7.33;68.16;98745.09;5006361;28;20404;-85
2021/03/12 07:31:30;;;;;;;12.38;3.60;;;;;;;7.35;68.60;98740.63;5007036;28;20074;-84
2021/03/12 07:33:59;;;;;;;16.88;4.45;;;;;;;7.35;68.55;98743.25;5006236;28;20050;-84
2021/03/12 07:36:27;;;;;;;16.17;3.88;;;;;;;7.38;69.31;98745.69;5007443;28;20125;-85
2021/03/12 07:39:01;;;;;;;16.00;4.38;;;;;;;7.41;69.12;98747.28;5007364;28;20043;-85
2021/03/12 07:41:27;;;;;;;15.23;4.35;;;;;;;7.47;69.91;98753.91;5007882;28;20051;-84
2021/03/12 07:43:53;;;;;;;10.80;3.40;;;;;;;7.50;69.81;98748.47;5005844;28;20054;-84
2021/03/12 07:46:20;;;;;;;18.48;4.22;;;;;;;7.55;69.57;98767.38;5007429;28;20054;-84
2021/03/12 07:48:47;;;;;;;11.75;3.40;;;;;;;7.59;69.33;98758.38;5004377;28;20081;-84
2021/03/12 07:51:15;;;;;;;12.30;3.40;;;;;;;7.60;68.63;98759.25;5003727;28;20064;-85
2021/03/12 07:53:48;;;;;;;13.07;3.97;;;;;;;7.60;68.18;98774.94;5002887;28;20054;-84
2021/03/12 07:56:15;;;;;;;12.23;3.65;;;;;;;7.63;69.07;98766.91;4983740;28;20050;-85
2021/03/12 07:58:59;;;;;;;14.02;3.53;;;;;;;7.57;65.54;98765.50;4984058;28;20053;-84
2021/03/12 08:01:26;;;;;;;18.55;3.80;;;;;;;7.61;67.66;98755.69;4978523;28;20077;-83
2021/03/12 08:03:53;;;;;;;12.93;3.47;;;;;;;7.61;68.00;98768.78;4979080;28;20046;-84
2021/03/12 08:06:20;;;;;;;13.02;4.05;;;;;;;7.60;68.06;98754.84;4996638;28;20059;-83
2021/03/12 08:08:47;;;;;;;12.40;3.08;;;;;;;7.61;68.38;98771.41;4995477;28;20057;-84
2021/03/12 08:11:21;;;;;;;15.13;4.18;;;;;;;7.61;67.73;98763.53;4995442;28;20493;-84
2021/03/12 08:13:51;;;;;;;20.48;3.92;;;;;;;7.56;66.56;98764.66;4995281;28;20050;-84
2021/03/12 08:16:21;;;;;;;13.48;3.42;;;;;;;7.61;67.63;98768.78;4996507;28;20054;-84
2021/03/12 08:18:47;;;;;;;11.57;3.20;;;;;;;7.61;67.50;98787.97;4995252;28;20061;-84
2021/03/12 08:21:32;;;;;;;11.38;3.67;;;;;;;7.59;66.23;98775.91;4995319;28;20129;-84
2021/03/12 08:23:59;;;;;;;18.40;3.42;;;;;;;7.63;67.74;98759.88;4995760;28;20069;-84
2021/03/12 08:26:51;;;;;;;24.00;4.38;;;;;;;7.62;65.47;98771.31;4996185;28;20420;-84
2021/03/12 08:29:30;;;;;;;16.08;3.25;;;;;;;7.63;64.72;98780.00;4994895;28;20053;-84
2021/03/12 08:31:57;;;;;;;14.73;4.07;;;;;;;7.68;67.64;98770.94;4995089;28;20054;-84
2021/03/12 08:34:35;;;;;;;21.30;3.50;;;;;;;7.66;64.05;98767.56;4995632;28;20046;-83
2021/03/12 08:37:26;;;;;;;13.32;3.28;;;;;;;7.71;64.94;98777.78;4994534;28;20054;-84
2021/03/12 08:40:14;;;;;;;14.80;3.10;;;;;;;7.76;64.33;98770.47;4995651;28;20050;-83
2021/03/12 08:43:08;;;;;;;12.15;3.20;;;;;;;7.82;64.42;98769.25;4994789;28;20046;-83
2021/03/12 08:45:42;;;;;;;15.13;2.92;;;;;;;7.90;67.27;98766.16;4995136;28;20057;-84
2021/03/12 08:48:15;;;;;;;14.57;3.50;;;;;;;7.88;66.61;98753.16;4995605;28;20053;-84
2021/03/12 08:50:54;;;;;;;16.85;3.15;;;;;;;7.90;65.87;98774.00;4994312;28;20046;-84
2021/03/12 08:53:26;;;;;;;24.20;3.55;;;;;;;7.90;64.14;98756.53;4995828;28;20054;-84
2021/03/12 08:55:55;;;;;;;12.65;3.20;;;;;;;7.97;66.70;98759.59;4994327;28;20132;-84
2021/03/12 08:58:27;;;;;;;12.93;2.63;;;;;;;8.01;67.01;98762.88;4995123;28;20046;-84
2021/03/12 09:00:55;;;;;;;10.85;2.75;;;;;;;8.05;66.75;98764.34;4994286;28;20046;-83
2021/03/12 09:03:34;;;;;;;14.13;3.75;;;;;;;8.08;66.63;98766.78;4995462;28;20416;-84
2021/03/12 09:06:03;;;;;;;10.93;2.60;;;;;;;8.16;67.28;98751.44;4994434;28;20065;-84
2021/03/12 09:08:30;;;;;;;15.88;3.35;;;;;;;8.24;67.31;98760.56;4994980;28;20481;-84
2021/03/12 09:10:57;;;;;;;12.30;3.03;;;;;;;8.28;67.20;98769.91;4994250;28;20496;-83
2021/03/12 09:13:27;;;;;;;13.20;2.20;;;;;;;8.32;66.30;98755.69;4995542;28;20055;-83
2021/03/12 09:15:53;;;;;;;15.95;3.53;;;;;;;8.40;66.57;98787.50;4994095;28;20046;-83
2021/03/12 09:18:38;;;;;;;14.93;3.17;;;;;;;8.41;65.05;98760.34;4993847;28;20042;-83
2021/03/12 09:21:11;;;;;;;;;;;;;;;8.44;62.34;98754.91;4994598;28;20050;-84
2021/03/12 09:23:38;;;;;;;15.85;3.03;;;;;;;8.53;65.08;98761.38;5042345;23;19928;-89
2021/03/12 09:26:10;;;;;;;12.40;3.22;;;;;;;8.56;65.44;98753.28;5014649;28;20054;-89
2021/03/12 09:28:37;;;;;;;11.23;2.40;;;;;;;8.64;66.25;98750.19;5011841;28;20050;-89
2021/03/12 09:31:05;;;;;;;13.85;2.90;;;;;;;8.70;66.57;98744.53;5013887;28;20149;-89
2021/03/12 09:33:37;;;;;;;18.65;3.13;;;;;;;8.75;64.21;98740.75;5013384;28;20104;-89
2021/03/12 09:36:21;;;;;;;11.32;3.55;;;;;;;8.88;66.08;98752.13;5012895;28;20060;-89
2021/03/12 09:38:49;;;;;;;13.73;2.67;;;;;;;8.97;65.95;98758.56;5012539;28;20057;-89
2021/03/12 09:41:24;;;;;;;15.20;2.42;;;;;;;9.05;63.64;98747.53;5013157;28;20049;-89
2021/03/12 09:43:59;;;;;;;14.93;3.78;;;;;;;9.11;62.50;98747.97;5012556;28;20060;-89
2021/03/12 09:46:30;;;;;;;19.15;3.80;;;;;;;9.21;64.54;98753.44;5012656;28;20058;-88
2021/03/12 09:48:59;;;;;;;13.57;2.90;;;;;;;9.27;65.03;98744.28;4997945;28;20416;-89
2021/03/12 09:51:31;;;;;;;18.55;3.08;;;;;;;9.30;62.66;98736.22;4992893;28;20065;-89
2021/03/12 09:53:59;;;;;;;18.75;3.08;;;;;;;9.35;63.86;98763.00;4992671;28;20050;-89
2021/03/12 09:56:26;;;;;;;23.35;3.38;;;;;;;9.38;64.06;98747.03;4993285;28;20050;-89
2021/03/12 09:58:52;;;;;;;19.20;3.75;;;;;;;9.47;64.62;98744.72;5028306;28;20077;-89
2021/03/12 10:01:20;;;;;;;12.77;3.15;;;;;;;9.51;63.64;98736.53;5012337;28;20049;-89
2021/03/12 10:03:47;;;;;;;20.35;2.92;;;;;;;9.58;63.49;98743.97;5012300;28;20053;-89
2021/03/12 10:06:15;;;;;;;14.68;3.13;;;;;;;9.62;62.89;98746.28;5013309;28;20266;-89
2021/03/12 10:09:01;;;;;;;13.07;3.35;;;;;;;9.67;61.37;98745.09;5012048;28;20580;-89
2021/03/12 10:11:41;;;;;;;13.70;2.45;;;;;;;9.72;60.19;98750.91;5011579;28;20049;-88
2021/03/12 10:14:37;;;;;;;19.77;3.90;;;;;;;9.72;56.85;98753.53;5011972;28;20054;-88
2021/03/12 10:17:12;;;;;;;12.63;2.53;;;;;;;9.76;60.97;98757.63;5009785;28;20058;-89
2021/03/12 10:19:52;;;;;;;11.75;3.13;;;;;;;9.73;59.33;98739.44;5013427;28;20468;-89
2021/03/12 10:22:34;;;;;;;14.27;4.07;;;;;;;9.75;59.60;98722.63;5012390;28;20504;-89
2021/03/12 10:25:04;;;;;;;16.08;4.03;;;;;;;9.74;60.28;98736.72;5010943;28;20096;-88
2021/03/12 10:27:34;;;;;;;11.23;3.47;;;;;;;9.79;62.38;98728.47;5004733;28;20093;-88
2021/03/12 10:30:23;;;;;;;18.95;3.95;;;;;;;9.73;58.32;98737.66;4992463;28;20057;-89
2021/03/12 10:32:50;;;;;;;19.00;3.60;;;;;;;9.78;61.37;98717.16;4993539;28;20046;-88
2021/03/12 10:35:22;;;;;;;18.02;2.97;;;;;;;9.81;60.61;98717.88;4992811;28;20054;-88
2021/03/12 10:37:49;;;;;;;15.93;3.05;;;;;;;9.87;61.42;98726.16;4999116;28;20052;-88
2021/03/12 10:40:17;;;;;;;20.05;4.00;;;;;;;9.90;60.53;98717.22;5012093;28;20085;-88
2021/03/12 10:42:43;;;;;;;15.90;3.20;;;;;;;9.97;61.90;98715.84;5013140;28;20050;-88
2021/03/12 10:45:19;;;;;;;14.00;3.22;;;;;;;10.02;61.35;98713.72;5009627;28;20140;-88
2021/03/12 10:48:06;;;;;;;13.77;2.75;;;;;;;10.04;58.84;98700.47;4991990;28;20065;-88
2021/03/12 10:50:50;;;;;;;17.58;3.72;;;;;;;10.07;57.74;98692.38;4992363;28;20054;-88
2021/03/12 10:53:16;;;;;;;19.73;3.10;;;;;;;10.12;60.86;98698.13;4991947;28;20722;-87
2021/03/12 10:55:46;;;;;;;13.77;3.08;;;;;;;10.17;59.97;98706.50;4994394;28;20050;-88
2021/03/12 10:58:27;;;;;;;17.00;3.38;;;;;;;10.16;57.52;98698.72;4991928;28;20105;-90
2021/03/12 11:01:14;;;;;;;14.50;2.97;;;;;;;10.22;57.73;98687.78;4992100;28;20086;-89
2021/03/12 11:03:43;;;;;;;18.17;3.25;;;;;;;10.29;60.01;98702.16;4996034;28;20516;-89
2021/03/12 11:06:12;;;;;;;17.55;4.00;;;;;;;10.32;59.45;98689.72;5006883;28;20078;-89
2021/03/12 11:08:39;;;;;;;14.50;3.13;;;;;;;10.33;60.37;98670.38;4993453;28;20061;-88
2021/03/12 11:11:09;;;;;;;13.50;2.50;;;;;;;10.34;59.82;98683.41;4992783;28;20054;-90
2021/03/12 11:13:37;;;;;;;16.08;3.70;;;;;;;10.36;59.68;98673.59;4991812;28;20133;-89
2021/03/12 11:16:04;;;;;;;15.07;3.03;;;;;;;10.40;60.60;98661.91;5008659;28;20058;-90
2021/03/12 11:18:31;;;;;;;16.50;3.45;;;;;;;10.39;59.51;98691.78;5011583;28;20050;-89
2021/03/12 11:20:59;;;;;;;13.73;3.38;;;;;;;10.37;59.59;98679.72;5011918;28;20416;-89
2021/03/12 11:23:25;;;;;;;15.60;2.65;;;;;;;10.35;59.35;98686.88;5014245;28;20061;-88
2021/03/12 11:25:52;;;;;;;17.23;3.70;;;;;;;10.32;59.56;98672.13;5016214;28;20053;-88
2021/03/12 11:28:18;;;;;;;13.85;2.95;;;;;;;10.26;58.00;98667.34;5015345;28;20046;-89
2021/03/12 11:30:45;;;;;;;15.00;3.38;;;;;;;10.25;59.43;98658.59;5016246;28;20563;-88
2021/03/12 11:33:11;;;;;;;13.90;3.08;;;;;;;10.21;59.53;98641.38;5016372;28;20053;-88
2021/03/12 11:35:38;;;;;;;14.05;3.20;;;;;;;10.19;59.41;98659.06;5014735;28;20045;-90
2021/03/12 11:38:06;;;;;;;15.48;4.00;;;;;;;10.14;59.00;98667.28;5014915;28;20049;-88
2021/03/12 11:40:33;;;;;;;18.92;3.53;;;;;;;10.12;58.24;98663.09;5016247;28;20046;-88
2021/03/12 11:42:59;;;;;;;13.95;3.30;;;;;;;10.12;59.03;98648.16;5015418;28;20058;-89
2021/03/12 11:45:25;;;;;;;15.23;3.20;;;;;;;10.14;59.79;98646.25;5013732;28;20054;-88